sensor_id;sensor_type;location;lat;lon;timestamp;temperature;humidity
5344;DHT22;2694;48.950;8.970;2022-11-20T00:00:40;5.40;99.90
5344;DHT22;2694;48.950;8.970;2022-11-20T00:03:07;5.50;99.90
5344;DHT22;2694;48.950;8.970;2022-11-20T00:05:34;5.60;99.90
5344;DHT22;2694;48.950;8.970;2022-11-20T00:08:01;5.50;99.90
5344;DHT22;2694;48.950;8.970;2022-11-20T00:10:30;5.30;99.90
5344;DHT22;2694;48.950;8.970;2022-11-20T00:12:58;5.30;99.90
5344;DHT22;2694;48.950;8.970;2022-11-20T00:15:25;5.30;99.90
5344;DHT22;2694;48.950;8.970;2022-11-20T00:17:52;5.40;99.90
5344;DHT22;2694;48.950;8.970;2022-11-20T00:20:19;5.40;99.90
5344;DHT22;2694;48.950;8.970;2022-11-20T00:22:46;5.40;99.90
5344;DHT22;2694;48.950;8.970;2022-11-20T00:25:13;5.40;99.90
5344;DHT22;2694;48.950;8.970;2022-11-20T00:27:44;5.20;99.90
5344;DHT22;2694;48.950;8.970;2022-11-20T00:30:11;5.20;99.90
5344;DHT22;2694;48.950;8.970;2022-11-20T00:32:38;5.30;99.90
5344;DHT22;2694;48.950;8.970;2022-11-20T00:35:05;5.30;99.90
5344;DHT22;2694;48.950;8.970;2022-11-20T00:37:32;5.10;99.90
5344;DHT22;2694;48.950;8.970;2022-11-20T00:40:00;5.20;99.90
5344;DHT22;2694;48.950;8.970;2022-11-20T00:42:27;5.30;99.90
5344;DHT22;2694;48.950;8.970;2022-11-20T00:45:00;5.40;99.90
5344;DHT22;2694;48.950;8.970;2022-11-20T00:47:27;5.50;99.90
5344;DHT22;2694;48.950;8.970;2022-11-20T00:49:57;5.50;99.90
5344;DHT22;2694;48.950;8.970;2022-11-20T00:52:25;5.40;99.90
5344;DHT22;2694;48.950;8.970;2022-11-20T00:54:52;5.50;99.90
5344;DHT22;2694;48.950;8.970;2022-11-20T00:57:19;5.40;99.90
5344;DHT22;2694;48.950;8.970;2022-11-20T00:59:46;5.50;99.90
5344;DHT22;2694;48.950;8.970;2022-11-20T01:02:15;5.40;99.90
5344;DHT22;2694;48.950;8.970;2022-11-20T01:04:43;5.50;99.90
5344;DHT22;2694;48.950;8.970;2022-11-20T01:07:10;5.50;99.90
5344;DHT22;2694;48.950;8.970;2022-11-20T01:09:37;5.60;99.90
5344;DHT22;2694;48.950;8.970;2022-11-20T01:12:05;5.60;99.90
5344;DHT22;2694;48.950;8.970;2022-11-20T01:14:36;5.60;99.90
5344;DHT22;2694;48.950;8.970;2022-11-20T01:17:03;5.50;99.90
5344;DHT22;2694;48.950;8.970;2022-11-20T01:19:32;5.60;99.90
5344;DHT22;2694;48.950;8.970;2022-11-20T01:22:01;5.60;99.90
5344;DHT22;2694;48.950;8.970;2022-11-20T01:24:29;5.60;99.90
5344;DHT22;2694;48.950;8.970;2022-11-20T01:26:56;5.70;99.90
5344;DHT22;2694;48.950;8.970;2022-11-20T01:29:25;5.80;99.90
5344;DHT22;2694;48.950;8.970;2022-11-20T01:31:54;5.70;99.90
5344;DHT22;2694;48.950;8.970;2022-11-20T01:34:23;5.70;99.90
5344;DHT22;2694;48.950;8.970;2022-11-20T01:36:53;5.40;99.90
5344;DHT22;2694;48.950;8.970;2022-11-20T01:39:21;5.40;99.90
5344;DHT22;2694;48.950;8.970;2022-11-20T01:41:52;5.30;99.90
5344;DHT22;2694;48.950;8.970;2022-11-20T01:44:56;5.10;99.90
5344;DHT22;2694;48.950;8.970;2022-11-20T01:47:30;5.10;99.90
5344;DHT22;2694;48.950;8.970;2022-11-20T01:50:03;5.10;99.90
5344;DHT22;2694;48.950;8.970;2022-11-20T01:52:34;5.40;99.90
5344;DHT22;2694;48.950;8.970;2022-11-20T01:55:07;5.40;99.90
5344;DHT22;2694;48.950;8.970;2022-11-20T01:57:35;5.50;99.90
5344;DHT22;2694;48.950;8.970;2022-11-20T02:00:07;5.50;99.90
5344;DHT22;2694;48.950;8.970;2022-11-20T02:02:35;5.70;99.90
5344;DHT22;2694;48.950;8.970;2022-11-20T02:05:14;5.80;99.90
5344;DHT22;2694;48.950;8.970;2022-11-20T02:07:45;5.70;99.90
5344;DHT22;2694;48.950;8.970;2022-11-20T02:10:12;5.70;99.90
5344;DHT22;2694;48.950;8.970;2022-11-20T02:12:40;5.60;99.90
5344;DHT22;2694;48.950;8.970;2022-11-20T02:15:24;5.60;99.90
5344;DHT22;2694;48.950;8.970;2022-11-20T02:17:51;5.70;99.90
5344;DHT22;2694;48.950;8.970;2022-11-20T02:20:18;5.70;99.90
5344;DHT22;2694;48.950;8.970;2022-11-20T02:22:54;5.70;99.90
5344;DHT22;2694;48.950;8.970;2022-11-20T02:25:24;5.70;99.90
5344;DHT22;2694;48.950;8.970;2022-11-20T02:27:51;5.70;99.90
5344;DHT22;2694;48.950;8.970;2022-11-20T02:30:19;5.60;99.90
5344;DHT22;2694;48.950;8.970;2022-11-20T02:32:46;5.40;99.90
5344;DHT22;2694;48.950;8.970;2022-11-20T02:35:43;5.30;99.90
5344;DHT22;2694;48.950;8.970;2022-11-20T02:38:11;5.40;99.90
5344;DHT22;2694;48.950;8.970;2022-11-20T02:40:41;5.40;99.90
5344;DHT22;2694;48.950;8.970;2022-11-20T02:43:08;5.30;99.90
5344;DHT22;2694;48.950;8.970;2022-11-20T02:45:35;5.30;99.90
5344;DHT22;2694;48.950;8.970;2022-11-20T02:48:06;5.20;99.90
5344;DHT22;2694;48.950;8.970;2022-11-20T02:50:40;5.20;99.90
5344;DHT22;2694;48.950;8.970;2022-11-20T02:53:09;5.30;99.90
5344;DHT22;2694;48.950;8.970;2022-11-20T02:55:36;5.40;99.90
5344;DHT22;2694;48.950;8.970;2022-11-20T02:58:05;5.50;99.90
5344;DHT22;2694;48.950;8.970;2022-11-20T03:00:35;5.50;99.90
5344;DHT22;2694;48.950;8.970;2022-11-20T03:03:04;5.50;99.90
5344;DHT22;2694;48.950;8.970;2022-11-20T03:05:32;5.60;99.90
5344;DHT22;2694;48.950;8.970;2022-11-20T03:07:59;5.50;99.90
5344;DHT22;2694;48.950;8.970;2022-11-20T03:10:26;5.50;99.90
5344;DHT22;2694;48.950;8.970;2022-11-20T03:12:54;5.50;99.90
5344;DHT22;2694;48.950;8.970;2022-11-20T03:15:24;5.50;99.90
5344;DHT22;2694;48.950;8.970;2022-11-20T03:17:53;5.50;99.90
5344;DHT22;2694;48.950;8.970;2022-11-20T03:20:22;5.60;99.90
5344;DHT22;2694;48.950;8.970;2022-11-20T03:22:49;5.50;99.90
5344;DHT22;2694;48.950;8.970;2022-11-20T03:25:17;5.50;99.90
5344;DHT22;2694;48.950;8.970;2022-11-20T03:27:44;5.60;99.90
5344;DHT22;2694;48.950;8.970;2022-11-20T03:30:11;5.70;99.90
5344;DHT22;2694;48.950;8.970;2022-11-20T03:32:40;5.70;99.90
5344;DHT22;2694;48.950;8.970;2022-11-20T03:35:08;5.80;99.90
5344;DHT22;2694;48.950;8.970;2022-11-20T03:37:39;5.90;99.90
5344;DHT22;2694;48.950;8.970;2022-11-20T03:40:08;5.80;99.90
5344;DHT22;2694;48.950;8.970;2022-11-20T03:42:36;5.90;99.90
5344;DHT22;2694;48.950;8.970;2022-11-20T03:45:12;5.80;99.90
5344;DHT22;2694;48.950;8.970;2022-11-20T03:47:41;5.80;99.90
5344;DHT22;2694;48.950;8.970;2022-11-20T03:50:09;5.80;99.90
5344;DHT22;2694;48.950;8.970;2022-11-20T03:52:38;5.80;99.90
5344;DHT22;2694;48.950;8.970;2022-11-20T03:55:07;5.80;99.90
5344;DHT22;2694;48.950;8.970;2022-11-20T03:57:34;5.90;99.90
5344;DHT22;2694;48.950;8.970;2022-11-20T04:00:02;5.80;99.90
5344;DHT22;2694;48.950;8.970;2022-11-20T04:02:30;5.90;99.90
5344;DHT22;2694;48.950;8.970;2022-11-20T04:04:58;5.80;99.90
5344;DHT22;2694;48.950;8.970;2022-11-20T04:07:28;5.80;99.90
5344;DHT22;2694;48.950;8.970;2022-11-20T04:09:55;5.90;99.90
5344;DHT22;2694;48.950;8.970;2022-11-20T04:12:22;5.90;99.90
5344;DHT22;2694;48.950;8.970;2022-11-20T04:14:53;5.90;99.90
5344;DHT22;2694;48.950;8.970;2022-11-20T04:17:24;6.00;99.90
5344;DHT22;2694;48.950;8.970;2022-11-20T04:19:53;6.00;99.90
5344;DHT22;2694;48.950;8.970;2022-11-20T04:22:22;6.10;99.90
5344;DHT22;2694;48.950;8.970;2022-11-20T04:24:51;6.10;99.90
5344;DHT22;2694;48.950;8.970;2022-11-20T04:27:18;6.00;99.90
5344;DHT22;2694;48.950;8.970;2022-11-20T04:29:45;6.10;99.90
5344;DHT22;2694;48.950;8.970;2022-11-20T04:32:13;6.10;99.90
5344;DHT22;2694;48.950;8.970;2022-11-20T04:34:40;6.20;99.90
5344;DHT22;2694;48.950;8.970;2022-11-20T04:37:09;6.10;99.90
5344;DHT22;2694;48.950;8.970;2022-11-20T04:39:37;6.20;99.90
5344;DHT22;2694;48.950;8.970;2022-11-20T04:42:05;6.20;99.90
5344;DHT22;2694;48.950;8.970;2022-11-20T04:44:50;6.20;99.90
5344;DHT22;2694;48.950;8.970;2022-11-20T04:47:18;6.20;99.90
5344;DHT22;2694;48.950;8.970;2022-11-20T04:49:45;6.30;99.90
5344;DHT22;2694;48.950;8.970;2022-11-20T04:52:12;6.30;99.90
5344;DHT22;2694;48.950;8.970;2022-11-20T04:54:41;6.30;99.90
5344;DHT22;2694;48.950;8.970;2022-11-20T04:57:18;6.30;99.90
5344;DHT22;2694;48.950;8.970;2022-11-20T04:59:45;6.30;99.90
5344;DHT22;2694;48.950;8.970;2022-11-20T05:02:12;6.30;99.90
5344;DHT22;2694;48.950;8.970;2022-11-20T05:04:43;6.30;99.90
5344;DHT22;2694;48.950;8.970;2022-11-20T05:07:10;6.30;99.90
5344;DHT22;2694;48.950;8.970;2022-11-20T05:09:37;6.30;99.90
5344;DHT22;2694;48.950;8.970;2022-11-20T05:12:07;6.30;99.90
5344;DHT22;2694;48.950;8.970;2022-11-20T05:14:34;6.30;99.90
5344;DHT22;2694;48.950;8.970;2022-11-20T05:17:01;6.30;99.90
5344;DHT22;2694;48.950;8.970;2022-11-20T05:19:29;6.30;99.90
5344;DHT22;2694;48.950;8.970;2022-11-20T05:21:56;6.30;99.90
5344;DHT22;2694;48.950;8.970;2022-11-20T05:24:23;6.30;99.90
5344;DHT22;2694;48.950;8.970;2022-11-20T05:26:50;6.30;99.90
5344;DHT22;2694;48.950;8.970;2022-11-20T05:29:19;6.30;99.90
5344;DHT22;2694;48.950;8.970;2022-11-20T05:31:46;6.30;99.90
5344;DHT22;2694;48.950;8.970;2022-11-20T05:34:13;6.30;99.90
5344;DHT22;2694;48.950;8.970;2022-11-20T05:36:40;6.30;99.90
5344;DHT22;2694;48.950;8.970;2022-11-20T05:39:07;6.30;99.90
5344;DHT22;2694;48.950;8.970;2022-11-20T05:41:35;6.40;99.90
5344;DHT22;2694;48.950;8.970;2022-11-20T05:44:06;6.40;99.90
5344;DHT22;2694;48.950;8.970;2022-11-20T05:46:37;6.40;99.90
5344;DHT22;2694;48.950;8.970;2022-11-20T05:49:04;6.30;99.90
5344;DHT22;2694;48.950;8.970;2022-11-20T05:51:31;6.40;99.90
5344;DHT22;2694;48.950;8.970;2022-11-20T05:53:59;6.40;99.90
5344;DHT22;2694;48.950;8.970;2022-11-20T05:56:26;6.40;99.90
5344;DHT22;2694;48.950;8.970;2022-11-20T05:58:56;6.40;99.90
5344;DHT22;2694;48.950;8.970;2022-11-20T06:01:24;6.40;99.90
5344;DHT22;2694;48.950;8.970;2022-11-20T06:03:55;6.50;99.90
5344;DHT22;2694;48.950;8.970;2022-11-20T06:06:22;6.40;99.90
5344;DHT22;2694;48.950;8.970;2022-11-20T06:08:50;6.50;99.90
5344;DHT22;2694;48.950;8.970;2022-11-20T06:11:27;6.40;99.90
5344;DHT22;2694;48.950;8.970;2022-11-20T06:13:54;6.40;99.90
5344;DHT22;2694;48.950;8.970;2022-11-20T06:16:21;6.40;99.90
5344;DHT22;2694;48.950;8.970;2022-11-20T06:18:49;6.50;99.90
5344;DHT22;2694;48.950;8.970;2022-11-20T06:21:22;6.50;99.90
5344;DHT22;2694;48.950;8.970;2022-11-20T06:23:51;6.40;99.90
5344;DHT22;2694;48.950;8.970;2022-11-20T06:26:21;6.50;99.90
5344;DHT22;2694;48.950;8.970;2022-11-20T06:28:50;6.40;99.90
5344;DHT22;2694;48.950;8.970;2022-11-20T06:31:20;6.40;99.90
5344;DHT22;2694;48.950;8.970;2022-11-20T06:33:48;6.40;99.90
5344;DHT22;2694;48.950;8.970;2022-11-20T06:36:16;6.40;99.90
5344;DHT22;2694;48.950;8.970;2022-11-20T06:38:49;6.40;99.90
5344;DHT22;2694;48.950;8.970;2022-11-20T06:41:18;6.40;99.90
5344;DHT22;2694;48.950;8.970;2022-11-20T06:43:48;6.40;99.90
5344;DHT22;2694;48.950;8.970;2022-11-20T06:46:16;6.50;99.90
5344;DHT22;2694;48.950;8.970;2022-11-20T06:48:44;6.50;99.90
5344;DHT22;2694;48.950;8.970;2022-11-20T06:51:13;6.50;99.90
5344;DHT22;2694;48.950;8.970;2022-11-20T06:53:40;6.50;99.90
5344;DHT22;2694;48.950;8.970;2022-11-20T06:56:09;6.50;99.90
5344;DHT22;2694;48.950;8.970;2022-11-20T06:58:37;6.50;99.90
5344;DHT22;2694;48.950;8.970;2022-11-20T07:01:06;6.50;99.90
5344;DHT22;2694;48.950;8.970;2022-11-20T07:03:33;6.50;99.90
5344;DHT22;2694;48.950;8.970;2022-11-20T07:06:01;6.50;99.90
5344;DHT22;2694;48.950;8.970;2022-11-20T07:08:29;6.60;99.90
5344;DHT22;2694;48.950;8.970;2022-11-20T07:10:58;6.50;99.90
5344;DHT22;2694;48.950;8.970;2022-11-20T07:13:27;6.50;99.90
5344;DHT22;2694;48.950;8.970;2022-11-20T07:15:54;6.50;99.90
5344;DHT22;2694;48.950;8.970;2022-11-20T07:18:22;6.50;99.90
5344;DHT22;2694;48.950;8.970;2022-11-20T07:20:52;6.50;99.90
5344;DHT22;2694;48.950;8.970;2022-11-20T07:23:20;6.40;99.90
5344;DHT22;2694;48.950;8.970;2022-11-20T07:25:47;6.40;99.90
5344;DHT22;2694;48.950;8.970;2022-11-20T07:28:16;6.50;99.90
5344;DHT22;2694;48.950;8.970;2022-11-20T07:30:49;6.50;99.90
5344;DHT22;2694;48.950;8.970;2022-11-20T07:33:17;6.50;99.90
5344;DHT22;2694;48.950;8.970;2022-11-20T07:35:44;6.50;99.90
5344;DHT22;2694;48.950;8.970;2022-11-20T07:38:12;6.50;99.90
5344;DHT22;2694;48.950;8.970;2022-11-20T07:40:41;6.50;99.90
5344;DHT22;2694;48.950;8.970;2022-11-20T07:43:11;6.50;99.90
5344;DHT22;2694;48.950;8.970;2022-11-20T07:45:38;6.50;99.90
5344;DHT22;2694;48.950;8.970;2022-11-20T07:48:07;6.50;99.90
5344;DHT22;2694;48.950;8.970;2022-11-20T07:50:34;6.60;99.90
5344;DHT22;2694;48.950;8.970;2022-11-20T07:53:04;6.60;99.90
5344;DHT22;2694;48.950;8.970;2022-11-20T07:55:32;6.60;99.90
5344;DHT22;2694;48.950;8.970;2022-11-20T07:58:00;6.70;99.90
5344;DHT22;2694;48.950;8.970;2022-11-20T08:00:27;6.70;99.90
5344;DHT22;2694;48.950;8.970;2022-11-20T08:02:55;6.70;99.90
5344;DHT22;2694;48.950;8.970;2022-11-20T08:05:23;6.70;99.90
5344;DHT22;2694;48.950;8.970;2022-11-20T08:07:50;6.80;99.90
5344;DHT22;2694;48.950;8.970;2022-11-20T08:10:18;6.80;99.90
5344;DHT22;2694;48.950;8.970;2022-11-20T08:12:46;6.80;99.90
5344;DHT22;2694;48.950;8.970;2022-11-20T08:15:30;6.80;99.90
5344;DHT22;2694;48.950;8.970;2022-11-20T08:18:02;6.80;99.90
5344;DHT22;2694;48.950;8.970;2022-11-20T08:20:32;6.70;99.90
5344;DHT22;2694;48.950;8.970;2022-11-20T08:23:00;6.60;99.90
5344;DHT22;2694;48.950;8.970;2022-11-20T08:25:28;6.60;99.90
5344;DHT22;2694;48.950;8.970;2022-11-20T08:27:57;6.50;99.90
5344;DHT22;2694;48.950;8.970;2022-11-20T08:30:25;6.50;99.90
5344;DHT22;2694;48.950;8.970;2022-11-20T08:32:53;6.50;99.90
5344;DHT22;2694;48.950;8.970;2022-11-20T08:35:21;6.50;99.90
5344;DHT22;2694;48.950;8.970;2022-11-20T08:37:49;6.50;99.90
5344;DHT22;2694;48.950;8.970;2022-11-20T08:40:16;6.50;99.90
5344;DHT22;2694;48.950;8.970;2022-11-20T08:42:47;6.60;99.90
5344;DHT22;2694;48.950;8.970;2022-11-20T08:45:15;6.70;99.90
5344;DHT22;2694;48.950;8.970;2022-11-20T08:47:42;6.70;99.90
5344;DHT22;2694;48.950;8.970;2022-11-20T08:50:10;6.70;99.90
5344;DHT22;2694;48.950;8.970;2022-11-20T08:52:37;6.60;99.90
5344;DHT22;2694;48.950;8.970;2022-11-20T08:55:07;6.60;99.90
5344;DHT22;2694;48.950;8.970;2022-11-20T08:57:36;6.70;99.90
5344;DHT22;2694;48.950;8.970;2022-11-20T09:00:05;6.70;99.90
5344;DHT22;2694;48.950;8.970;2022-11-20T09:02:32;6.70;99.90
5344;DHT22;2694;48.950;8.970;2022-11-20T09:04:59;6.70;99.90
5344;DHT22;2694;48.950;8.970;2022-11-20T09:07:28;6.80;99.90
5344;DHT22;2694;48.950;8.970;2022-11-20T09:09:55;6.90;99.90
5344;DHT22;2694;48.950;8.970;2022-11-20T09:12:24;6.90;99.90
5344;DHT22;2694;48.950;8.970;2022-11-20T09:14:51;6.90;99.90
5344;DHT22;2694;48.950;8.970;2022-11-20T09:17:18;6.90;99.90
5344;DHT22;2694;48.950;8.970;2022-11-20T09:19:46;6.90;99.90
5344;DHT22;2694;48.950;8.970;2022-11-20T09:22:14;6.90;99.90
5344;DHT22;2694;48.950;8.970;2022-11-20T09:24:41;7.00;99.90
5344;DHT22;2694;48.950;8.970;2022-11-20T09:27:10;7.00;99.90
5344;DHT22;2694;48.950;8.970;2022-11-20T09:29:39;7.00;99.90
5344;DHT22;2694;48.950;8.970;2022-11-20T09:32:06;7.10;99.90
5344;DHT22;2694;48.950;8.970;2022-11-20T09:34:34;7.10;99.90
5344;DHT22;2694;48.950;8.970;2022-11-20T09:37:01;7.10;99.90
5344;DHT22;2694;48.950;8.970;2022-11-20T09:39:28;7.10;99.90
5344;DHT22;2694;48.950;8.970;2022-11-20T09:42:18;7.10;99.90
5344;DHT22;2694;48.950;8.970;2022-11-20T09:47:58;7.20;99.90
5344;DHT22;2694;48.950;8.970;2022-11-20T09:50:32;7.10;99.90
5344;DHT22;2694;48.950;8.970;2022-11-20T09:53:12;7.10;99.90
5344;DHT22;2694;48.950;8.970;2022-11-20T09:55:40;7.10;99.90
5344;DHT22;2694;48.950;8.970;2022-11-20T09:58:16;7.10;99.90
5344;DHT22;2694;48.950;8.970;2022-11-20T10:00:51;7.10;99.90
5344;DHT22;2694;48.950;8.970;2022-11-20T10:03:37;7.00;99.90
5344;DHT22;2694;48.950;8.970;2022-11-20T10:06:10;7.00;99.90
5344;DHT22;2694;48.950;8.970;2022-11-20T10:08:41;7.00;99.90
5344;DHT22;2694;48.950;8.970;2022-11-20T10:11:15;7.00;99.90
5344;DHT22;2694;48.950;8.970;2022-11-20T10:13:53;7.00;99.90
5344;DHT22;2694;48.950;8.970;2022-11-20T10:16:38;7.00;99.90
5344;DHT22;2694;48.950;8.970;2022-11-20T10:19:18;7.00;99.90
5344;DHT22;2694;48.950;8.970;2022-11-20T10:21:55;7.00;99.90
5344;DHT22;2694;48.950;8.970;2022-11-20T10:24:42;7.00;99.90
5344;DHT22;2694;48.950;8.970;2022-11-20T10:27:38;7.00;99.90
5344;DHT22;2694;48.950;8.970;2022-11-20T10:30:09;6.90;99.90
5344;DHT22;2694;48.950;8.970;2022-11-20T10:32:40;6.90;99.90
5344;DHT22;2694;48.950;8.970;2022-11-20T10:35:19;6.90;99.90
5344;DHT22;2694;48.950;8.970;2022-11-20T10:37:51;6.90;99.90
5344;DHT22;2694;48.950;8.970;2022-11-20T10:40:29;6.90;99.90
5344;DHT22;2694;48.950;8.970;2022-11-20T10:43:01;6.80;99.90
5344;DHT22;2694;48.950;8.970;2022-11-20T10:45:38;6.90;99.90
5344;DHT22;2694;48.950;8.970;2022-11-20T10:48:12;6.90;99.90
5344;DHT22;2694;48.950;8.970;2022-11-20T10:51:03;6.90;99.90
5344;DHT22;2694;48.950;8.970;2022-11-20T10:53:52;6.90;99.90
5344;DHT22;2694;48.950;8.970;2022-11-20T10:56:27;6.90;99.90
5344;DHT22;2694;48.950;8.970;2022-11-20T10:59:19;6.90;99.90
5344;DHT22;2694;48.950;8.970;2022-11-20T11:01:52;7.00;99.90
5344;DHT22;2694;48.950;8.970;2022-11-20T11:04:33;7.10;99.90
5344;DHT22;2694;48.950;8.970;2022-11-20T11:07:09;7.20;99.90
5344;DHT22;2694;48.950;8.970;2022-11-20T11:09:42;7.30;99.90
5344;DHT22;2694;48.950;8.970;2022-11-20T11:12:11;7.40;99.90
5344;DHT22;2694;48.950;8.970;2022-11-20T11:14:43;7.60;99.90
5344;DHT22;2694;48.950;8.970;2022-11-20T11:17:24;7.90;99.90
5344;DHT22;2694;48.950;8.970;2022-11-20T11:20:17;8.30;99.90
5344;DHT22;2694;48.950;8.970;2022-11-20T11:22:54;8.30;99.90
5344;DHT22;2694;48.950;8.970;2022-11-20T11:25:27;8.20;99.90
5344;DHT22;2694;48.950;8.970;2022-11-20T11:27:56;8.10;99.90
5344;DHT22;2694;48.950;8.970;2022-11-20T11:30:25;8.20;99.90
5344;DHT22;2694;48.950;8.970;2022-11-20T11:33:03;8.40;99.90
5344;DHT22;2694;48.950;8.970;2022-11-20T11:35:44;8.60;99.90
5344;DHT22;2694;48.950;8.970;2022-11-20T11:38:15;8.60;99.90
5344;DHT22;2694;48.950;8.970;2022-11-20T11:40:43;8.60;99.90
5344;DHT22;2694;48.950;8.970;2022-11-20T11:43:20;8.50;99.90
5344;DHT22;2694;48.950;8.970;2022-11-20T11:46:29;8.40;99.90
5344;DHT22;2694;48.950;8.970;2022-11-20T11:48:58;8.10;99.90
5344;DHT22;2694;48.950;8.970;2022-11-20T11:51:45;8.00;99.90
5344;DHT22;2694;48.950;8.970;2022-11-20T11:54:17;7.80;99.90
5344;DHT22;2694;48.950;8.970;2022-11-20T11:56:46;7.90;99.90
5344;DHT22;2694;48.950;8.970;2022-11-20T11:59:22;8.00;99.90
5344;DHT22;2694;48.950;8.970;2022-11-20T12:01:53;8.20;99.90
5344;DHT22;2694;48.950;8.970;2022-11-20T12:04:29;8.30;99.90
5344;DHT22;2694;48.950;8.970;2022-11-20T12:07:09;8.30;99.90
5344;DHT22;2694;48.950;8.970;2022-11-20T12:09:43;8.40;99.90
5344;DHT22;2694;48.950;8.970;2022-11-20T12:12:18;8.40;99.90
5344;DHT22;2694;48.950;8.970;2022-11-20T12:14:48;8.50;99.90
5344;DHT22;2694;48.950;8.970;2022-11-20T12:17:18;8.40;99.90
5344;DHT22;2694;48.950;8.970;2022-11-20T12:19:45;8.40;99.90
5344;DHT22;2694;48.950;8.970;2022-11-20T12:22:23;8.40;99.90
5344;DHT22;2694;48.950;8.970;2022-11-20T12:25:00;8.50;99.90
5344;DHT22;2694;48.950;8.970;2022-11-20T12:30:26;8.70;99.90
5344;DHT22;2694;48.950;8.970;2022-11-20T12:33:31;8.70;99.90
5344;DHT22;2694;48.950;8.970;2022-11-20T12:36:13;8.70;99.90
5344;DHT22;2694;48.950;8.970;2022-11-20T12:39:15;8.70;99.90
5344;DHT22;2694;48.950;8.970;2022-11-20T12:45:10;8.90;99.90
5344;DHT22;2694;48.950;8.970;2022-11-20T12:47:53;8.70;99.90
5344;DHT22;2694;48.950;8.970;2022-11-20T12:50:31;8.70;99.90
5344;DHT22;2694;48.950;8.970;2022-11-20T12:53:04;8.50;99.90
5344;DHT22;2694;48.950;8.970;2022-11-20T12:55:44;8.30;99.90
5344;DHT22;2694;48.950;8.970;2022-11-20T12:58:20;8.10;99.90
5344;DHT22;2694;48.950;8.970;2022-11-20T13:00:57;8.00;99.90
5344;DHT22;2694;48.950;8.970;2022-11-20T13:03:37;8.10;99.90
5344;DHT22;2694;48.950;8.970;2022-11-20T13:06:12;8.10;99.90
5344;DHT22;2694;48.950;8.970;2022-11-20T13:08:41;8.00;99.90
5344;DHT22;2694;48.950;8.970;2022-11-20T13:11:18;8.00;99.90
5344;DHT22;2694;48.950;8.970;2022-11-20T13:14:00;8.00;99.90
5344;DHT22;2694;48.950;8.970;2022-11-20T13:16:36;8.00;99.90
5344;DHT22;2694;48.950;8.970;2022-11-20T13:19:08;8.00;99.90
5344;DHT22;2694;48.950;8.970;2022-11-20T13:21:38;8.10;99.90
5344;DHT22;2694;48.950;8.970;2022-11-20T13:24:06;8.10;99.90
5344;DHT22;2694;48.950;8.970;2022-11-20T13:26:35;8.10;99.90
5344;DHT22;2694;48.950;8.970;2022-11-20T13:29:07;8.10;99.90
5344;DHT22;2694;48.950;8.970;2022-11-20T13:31:38;8.10;99.90
5344;DHT22;2694;48.950;8.970;2022-11-20T13:34:12;8.00;99.90
5344;DHT22;2694;48.950;8.970;2022-11-20T13:36:49;8.00;99.90
5344;DHT22;2694;48.950;8.970;2022-11-20T13:39:24;7.80;99.90
5344;DHT22;2694;48.950;8.970;2022-11-20T13:41:56;7.80;99.90
5344;DHT22;2694;48.950;8.970;2022-11-20T13:44:27;7.70;99.90
5344;DHT22;2694;48.950;8.970;2022-11-20T13:46:55;7.80;99.90
5344;DHT22;2694;48.950;8.970;2022-11-20T13:49:26;7.90;99.90
5344;DHT22;2694;48.950;8.970;2022-11-20T13:52:02;8.00;99.90
5344;DHT22;2694;48.950;8.970;2022-11-20T13:54:57;8.00;99.90
5344;DHT22;2694;48.950;8.970;2022-11-20T13:57:44;8.00;99.90
5344;DHT22;2694;48.950;8.970;2022-11-20T14:00:17;8.00;99.90
5344;DHT22;2694;48.950;8.970;2022-11-20T14:02:46;7.90;99.90
5344;DHT22;2694;48.950;8.970;2022-11-20T14:05:19;8.00;99.90
5344;DHT22;2694;48.950;8.970;2022-11-20T14:07:49;8.00;99.90
5344;DHT22;2694;48.950;8.970;2022-11-20T14:10:22;8.00;99.90
5344;DHT22;2694;48.950;8.970;2022-11-20T14:12:51;8.00;99.90
5344;DHT22;2694;48.950;8.970;2022-11-20T14:15:26;8.00;99.90
5344;DHT22;2694;48.950;8.970;2022-11-20T14:17:54;8.00;99.90
5344;DHT22;2694;48.950;8.970;2022-11-20T14:20:24;8.00;99.90
5344;DHT22;2694;48.950;8.970;2022-11-20T14:22:53;7.90;99.90
5344;DHT22;2694;48.950;8.970;2022-11-20T14:25:22;7.90;99.90
5344;DHT22;2694;48.950;8.970;2022-11-20T14:27:56;7.90;99.90
5344;DHT22;2694;48.950;8.970;2022-11-20T14:30:25;7.90;99.90
5344;DHT22;2694;48.950;8.970;2022-11-20T14:32:56;7.80;99.90
5344;DHT22;2694;48.950;8.970;2022-11-20T14:35:27;7.80;99.90
5344;DHT22;2694;48.950;8.970;2022-11-20T14:37:55;7.70;99.90
5344;DHT22;2694;48.950;8.970;2022-11-20T14:40:26;7.70;99.90
5344;DHT22;2694;48.950;8.970;2022-11-20T14:42:55;7.70;99.90
5344;DHT22;2694;48.950;8.970;2022-11-20T14:45:23;7.70;99.90
5344;DHT22;2694;48.950;8.970;2022-11-20T14:47:52;7.70;99.90
5344;DHT22;2694;48.950;8.970;2022-11-20T14:50:24;7.60;99.90
5344;DHT22;2694;48.950;8.970;2022-11-20T14:52:54;7.50;99.90
5344;DHT22;2694;48.950;8.970;2022-11-20T14:55:29;7.50;99.90
5344;DHT22;2694;48.950;8.970;2022-11-20T14:58:00;7.40;99.90
5344;DHT22;2694;48.950;8.970;2022-11-20T15:00:28;7.40;99.90
5344;DHT22;2694;48.950;8.970;2022-11-20T15:02:56;7.40;99.90
5344;DHT22;2694;48.950;8.970;2022-11-20T15:05:25;7.40;99.90
5344;DHT22;2694;48.950;8.970;2022-11-20T15:08:05;7.30;99.90
5344;DHT22;2694;48.950;8.970;2022-11-20T15:10:33;7.20;99.90
5344;DHT22;2694;48.950;8.970;2022-11-20T15:13:05;7.20;99.90
5344;DHT22;2694;48.950;8.970;2022-11-20T15:15:44;7.10;99.90
5344;DHT22;2694;48.950;8.970;2022-11-20T15:18:13;7.10;99.90
5344;DHT22;2694;48.950;8.970;2022-11-20T15:20:42;7.10;99.90
5344;DHT22;2694;48.950;8.970;2022-11-20T15:23:11;7.00;99.90
5344;DHT22;2694;48.950;8.970;2022-11-20T15:25:39;6.90;99.90
5344;DHT22;2694;48.950;8.970;2022-11-20T15:28:14;6.80;99.90
5344;DHT22;2694;48.950;8.970;2022-11-20T15:30:42;6.70;99.90
5344;DHT22;2694;48.950;8.970;2022-11-20T15:33:10;6.70;99.90
5344;DHT22;2694;48.950;8.970;2022-11-20T15:35:41;6.70;99.90
5344;DHT22;2694;48.950;8.970;2022-11-20T15:38:08;6.70;99.90
5344;DHT22;2694;48.950;8.970;2022-11-20T15:40:35;6.60;99.90
5344;DHT22;2694;48.950;8.970;2022-11-20T15:43:03;6.60;99.90
5344;DHT22;2694;48.950;8.970;2022-11-20T15:45:36;6.70;99.90
5344;DHT22;2694;48.950;8.970;2022-11-20T15:48:08;6.60;99.90
5344;DHT22;2694;48.950;8.970;2022-11-20T15:50:38;6.60;99.90
5344;DHT22;2694;48.950;8.970;2022-11-20T15:53:07;6.50;99.90
5344;DHT22;2694;48.950;8.970;2022-11-20T15:55:35;6.50;99.90
5344;DHT22;2694;48.950;8.970;2022-11-20T15:58:02;6.50;99.90
5344;DHT22;2694;48.950;8.970;2022-11-20T16:00:29;6.40;99.90
5344;DHT22;2694;48.950;8.970;2022-11-20T16:02:58;6.50;99.90
5344;DHT22;2694;48.950;8.970;2022-11-20T16:05:28;6.40;99.90
5344;DHT22;2694;48.950;8.970;2022-11-20T16:07:56;6.40;99.90
5344;DHT22;2694;48.950;8.970;2022-11-20T16:10:23;6.50;99.90
5344;DHT22;2694;48.950;8.970;2022-11-20T16:12:50;6.50;99.90
5344;DHT22;2694;48.950;8.970;2022-11-20T16:15:35;6.50;99.90
5344;DHT22;2694;48.950;8.970;2022-11-20T16:18:17;6.50;99.90
5344;DHT22;2694;48.950;8.970;2022-11-20T16:20:46;6.50;99.90
5344;DHT22;2694;48.950;8.970;2022-11-20T16:23:13;6.60;99.90
5344;DHT22;2694;48.950;8.970;2022-11-20T16:25:41;6.50;99.90
5344;DHT22;2694;48.950;8.970;2022-11-20T16:28:08;6.50;99.90
5344;DHT22;2694;48.950;8.970;2022-11-20T16:30:36;6.60;99.90
5344;DHT22;2694;48.950;8.970;2022-11-20T16:33:04;6.50;99.90
5344;DHT22;2694;48.950;8.970;2022-11-20T16:35:32;6.50;99.90
5344;DHT22;2694;48.950;8.970;2022-11-20T16:38:00;6.50;99.90
5344;DHT22;2694;48.950;8.970;2022-11-20T16:40:27;6.50;99.90
5344;DHT22;2694;48.950;8.970;2022-11-20T16:42:55;6.50;99.90
5344;DHT22;2694;48.950;8.970;2022-11-20T16:45:23;6.50;99.90
5344;DHT22;2694;48.950;8.970;2022-11-20T16:47:50;6.50;99.90
5344;DHT22;2694;48.950;8.970;2022-11-20T16:50:17;6.40;99.90